Time;durP1;ratioP1;P1;durP2;ratioP2;P2;SDS_P1;SDS_P2;PMS_P1;PMS_P2;Temp;Humidity;BMP_temperature;BMP_pressure;BME280_temperature;BME280_humidity;BME280_pressure;Samples;Min_cycle;Max_cycle;Signal;HPM_P1;HPM_P2
2023/04/28 00:55:02;;;;;;;;;;;;;;;;;;;;;
2023/04/28 04:51:06;;;;;;;6.43;3.00;;;;;;;12.22;67.59;95226.63;5006659;28;20215;-85
2023/04/28 04:57:13;;;;;;;;;;;;;;;;;;;;;
2023/04/28 05:00:26;;;;;;;;;;;;;;;;;;;;;
2023/04/28 05:03:10;;;;;;;5.60;3.13;;;;;;;12.21;69.17;95221.59;5001414;28;20531;-83
2023/04/28 05:06:24;;;;;;;5.33;2.90;;;;;;;12.21;69.24;95224.19;4974852;28;20204;-85
2023/04/28 05:12:21;;;;;;;5.57;3.13;;;;;;;12.10;69.81;95233.13;4810825;29;20191;-85
2023/04/28 05:25:40;;;;;;;3.83;2.87;;;;;;;12.29;70.27;95224.19;6085382;23;20187;-82
2023/04/28 05:28:08;;;;;;;3.20;2.90;;;;;;;12.30;70.74;95225.81;4964291;28;20215;-84
2023/04/28 05:30:34;;;;;;;4.70;2.73;;;;;;;12.25;71.21;95223.69;4995509;28;20183;-83
2023/04/28 05:36:24;;;;;;;4.37;2.83;;;;;;;12.35;71.70;95224.31;4931197;29;20205;-81
2023/04/28 05:38:52;;;;;;;4.50;2.70;;;;;;;12.26;72.64;95220.09;4931513;29;20251;-83
2023/04/28 05:41:18;;;;;;;3.23;2.57;;;;;;;12.23;73.11;95214.44;4911015;29;20757;-85
2023/04/28 05:43:43;;;;;;;6.33;2.93;;;;;;;12.28;72.79;95217.34;4932922;29;20200;-84
2023/04/28 05:46:08;;;;;;;3.93;2.93;;;;;;;12.13;73.63;95222.41;4933541;29;20332;-84
2023/04/28 05:48:34;;;;;;;2.57;2.37;;;;;;;12.22;73.40;95218.81;4916211;29;20206;-84
2023/04/28 05:50:59;;;;;;;3.00;2.43;;;;;;;12.23;73.95;95219.63;4942716;29;20927;-83
2023/04/28 05:53:25;;;;;;;8.63;4.07;;;;;;;12.23;74.24;95217.84;4947797;28;20963;-83
2023/04/28 05:55:51;;;;;;;3.33;2.70;;;;;;;12.19;74.32;95219.97;4931653;29;20197;-83
2023/04/28 05:58:16;;;;;;;3.13;2.83;;;;;;;12.17;74.74;95216.69;4906321;29;20835;-83
2023/04/28 06:00:42;;;;;;;3.00;2.70;;;;;;;12.25;74.40;95221.09;4935393;29;20269;-83
2023/04/28 06:03:09;;;;;;;3.00;2.70;;;;;;;12.07;77.12;95210.06;4937506;29;20607;-82
2023/04/28 06:05:35;;;;;;;3.87;2.57;;;;;;;11.98;78.39;95217.06;4923391;29;20210;-82
2023/04/28 06:08:02;;;;;;;3.03;2.67;;;;;;;12.16;77.24;95219.47;4905994;29;20225;-83
2023/04/28 06:10:27;;;;;;;2.77;2.57;;;;;;;12.31;77.31;95220.44;4917114;29;20190;-82
2023/04/28 06:12:53;;;;;;;3.13;2.80;;;;;;;12.35;77.53;95218.31;4959579;28;20673;-82
2023/04/28 06:15:18;;;;;;;4.77;3.00;;;;;;;12.38;77.90;95211.00;4977667;28;20195;-80
2023/04/28 06:17:43;;;;;;;4.23;3.30;;;;;;;12.29;78.63;95208.56;4968875;28;20211;-82
2023/04/28 06:20:11;;;;;;;5.17;3.00;;;;;;;12.41;78.31;95204.63;4978788;28;20222;-82
2023/04/28 06:22:36;;;;;;;3.17;2.83;;;;;;;12.41;78.96;95207.22;4980762;28;20226;-81
2023/04/28 06:25:04;;;;;;;5.30;4.80;;;;;;;12.51;78.45;95199.22;4972959;28;20687;-82
2023/04/28 06:27:31;;;;;;;10.67;6.70;;;;;;;12.50;78.42;95205.41;4999776;28;20258;-82
2023/04/28 06:29:59;;;;;;;4.00;3.40;;;;;;;12.55;79.14;95205.75;4982557;28;20183;-82
2023/04/28 06:32:25;;;;;;;5.63;3.80;;;;;;;12.41;79.53;95197.63;4977977;28;20203;-80
2023/04/28 06:35:02;;;;;;;5.97;3.20;;;;;;;12.59;79.50;95200.00;4973799;28;20241;-83
2023/04/28 06:37:44;;;;;;;6.17;3.97;;;;;;;12.48;79.95;95202.97;4982459;28;20715;-81
2023/04/28 06:40:10;;;;;;;3.97;3.67;;;;;;;12.48;80.67;95184.75;4984608;28;20218;-83
2023/04/28 06:42:35;;;;;;;5.37;3.10;;;;;;;12.32;82.83;95197.81;4984348;28;20207;-81
2023/04/28 06:45:01;;;;;;;4.70;3.37;;;;;;;12.29;83.66;95203.38;4997683;28;20202;-80
2023/04/28 06:47:27;;;;;;;4.53;3.70;;;;;;;12.38;83.14;95202.38;4980404;28;20212;-81
2023/04/28 06:49:52;;;;;;;5.33;4.23;;;;;;;12.41;83.85;95196.81;4986627;28;20191;-82
2023/04/28 06:52:24;;;;;;;4.30;3.70;;;;;;;12.46;84.63;95197.13;4990729;28;20655;-83
2023/04/28 06:54:50;;;;;;;4.00;3.47;;;;;;;12.53;85.26;95192.03;4977848;28;20282;-83
2023/04/28 06:57:15;;;;;;;4.57;2.93;;;;;;;12.55;86.19;95187.50;4974428;28;20315;-82
2023/04/28 06:59:42;;;;;;;3.20;3.00;;;;;;;12.54;87.17;95181.47;4978838;28;20211;-82
2023/04/28 07:02:09;;;;;;;3.30;3.00;;;;;;;12.47;88.45;95181.34;4995474;28;20178;-82
2023/04/28 07:04:36;;;;;;;4.80;4.30;;;;;;;12.54;88.23;95180.66;5005181;28;20179;-82
2023/04/28 07:07:06;;;;;;;3.20;2.70;;;;;;;12.39;90.16;95177.94;5007248;28;20180;-83
2023/04/28 07:09:42;;;;;;;4.93;3.57;;;;;;;12.51;90.54;95181.81;4987052;28;20591;-82
2023/04/28 07:12:23;;;;;;;4.43;3.27;;;;;;;12.43;91.17;95181.81;4992569;28;20186;-82
2023/04/28 07:15:05;;;;;;;4.43;3.53;;;;;;;12.37;91.73;95185.13;4988103;28;20175;-83
2023/04/28 07:17:30;;;;;;;5.50;4.97;;;;;;;12.40;92.16;95180.38;4989240;28;20222;-82
2023/04/28 07:19:58;;;;;;;4.10;3.70;;;;;;;12.40;92.88;95180.38;4997633;28;20230;-82
2023/04/28 07:22:24;;;;;;;5.50;4.37;;;;;;;12.38;94.13;95184.94;4997248;28;20214;-83
2023/04/28 07:27:37;;;;;;;3.83;3.00;;;;;;;12.56;94.49;95179.50;4989078;28;20207;-82
2023/04/28 07:30:12;;;;;;;3.27;2.93;;;;;;;12.56;94.64;95181.31;4994284;28;20183;-82
2023/04/28 07:46:30;;;;;;;8.07;6.70;;;;;;;12.53;98.17;95197.25;4832869;29;20783;-83
2023/04/28 08:21:49;;;;;;;;;;;;;;;;;;;;;
2023/04/28 08:24:42;;;;;;;21.57;3.20;;;;;;;12.33;100.00;95252.31;4985328;28;20215;-84
2023/04/28 08:37:55;;;;;;;;;;;;;;;;;;;;;
2023/04/28 09:05:05;;;;;;;1.00;0.90;;;;;;;13.46;100.00;95276.38;4954544;29;20205;-83
2023/04/28 09:14:31;;;;;;;1.20;1.10;;;;;;;14.23;100.00;95284.16;4878863;29;20218;-82
2023/04/28 09:53:04;;;;;;;10.33;8.03;;;;;;;16.10;90.26;95286.38;4989656;28;20224;-82
2023/04/28 10:20:12;;;;;;;3.63;3.23;;;;;;;15.93;91.35;95296.28;5084129;23;20629;-83
2023/04/28 11:23:28;;;;;;;0.98;0.70;;;;;;;16.80;81.78;95282.13;4980906;28;20188;-87
2023/04/28 11:25:56;;;;;;;1.05;0.98;;;;;;;17.20;80.52;95283.13;4960255;28;20188;-81
2023/04/28 11:28:22;;;;;;;1.27;1.08;;;;;;;17.07;82.10;95283.88;4992354;28;20231;-81
2023/04/28 11:30:47;;;;;;;2.13;0.70;;;;;;;17.15;82.70;95291.59;4975775;28;20815;-82
2023/04/28 11:33:13;;;;;;;0.68;0.63;;;;;;;17.17;81.60;95291.41;4976005;28;20188;-84
2023/04/28 11:35:42;;;;;;;0.80;0.77;;;;;;;17.60;80.00;95285.91;4968965;28;20218;-84
2023/04/28 11:38:07;;;;;;;0.80;0.80;;;;;;;17.71;79.12;95285.38;4972901;28;20254;-84
2023/04/28 11:40:32;;;;;;;1.02;0.88;;;;;;;17.69;78.50;95290.00;4968267;28;20216;-84
2023/04/28 11:42:58;;;;;;;1.05;0.80;;;;;;;17.77;77.80;95281.97;4982462;28;20212;-81
2023/04/28 11:45:46;;;;;;;;;;;;;;;;;;;;;
2023/04/28 11:48:30;;;;;;;3.22;0.82;;;;;;;18.14;75.91;95285.88;5003141;28;20239;-80
2023/04/28 11:55:28;;;;;;;;;;;;;;;;;;;;;
2023/04/28 11:58:23;;;;;;;0.90;0.90;;;;;;;18.81;72.19;95284.84;4959540;28;20232;-82
2023/04/28 12:01:11;;;;;;;0.77;0.77;;;;;;;18.00;74.26;95268.44;4935512;28;20694;-82
2023/04/28 12:03:44;;;;;;;1.58;0.80;;;;;;;17.98;71.84;95268.66;4938488;28;20209;-81
2023/04/28 12:06:28;;;;;;;0.82;0.80;;;;;;;17.97;73.42;95277.56;4950737;28;20207;-83
2023/04/28 12:09:03;;;;;;;1.00;0.90;;;;;;;17.88;72.45;95270.88;4952696;28;20469;-82
2023/04/28 12:12:07;;;;;;;0.80;0.70;;;;;;;18.30;72.94;95272.34;4933124;28;20242;-82
2023/04/28 12:15:06;;;;;;;0.95;0.77;;;;;;;19.04;68.98;95288.88;4950587;28;20238;-82
2023/04/28 12:17:40;;;;;;;0.80;0.80;;;;;;;19.03;68.19;95276.72;4929274;28;20237;-82
2023/04/28 12:20:33;;;;;;;0.75;0.70;;;;;;;19.12;68.61;95292.09;4932711;28;20228;-82
2023/04/28 12:22:59;;;;;;;1.00;0.73;;;;;;;18.81;68.74;95295.38;4941570;28;20295;-83
2023/04/28 12:25:25;;;;;;;0.60;0.60;;;;;;;19.04;68.14;95291.50;4937110;28;20284;-81
2023/04/28 12:28:01;;;;;;;0.90;0.90;;;;;;;18.44;68.71;95293.34;4943208;28;20204;-82
2023/04/28 12:30:28;;;;;;;1.38;0.80;;;;;;;18.38;68.94;95281.84;4956971;28;20217;-83
2023/04/28 12:32:54;;;;;;;0.90;0.73;;;;;;;18.43;70.38;95286.47;4969455;28;20187;-82
2023/04/28 12:35:24;;;;;;;0.43;0.43;;;;;;;18.43;70.04;95292.53;4984168;28;20204;-83
2023/04/28 12:37:49;;;;;;;1.48;0.60;;;;;;;18.33;70.17;95285.06;4999380;28;20319;-82
2023/04/28 12:40:15;;;;;;;0.70;0.60;;;;;;;18.72;69.11;95280.81;4995195;28;20716;-82
2023/04/28 12:42:40;;;;;;;2.47;0.55;;;;;;;19.01;66.95;95278.78;4985449;28;20194;-82
2023/04/28 12:45:07;;;;;;;0.70;0.60;;;;;;;19.14;65.81;95276.91;4991398;28;20192;-83
2023/04/28 12:47:40;;;;;;;1.45;1.13;;;;;;;19.05;67.27;95277.31;4977119;28;20179;-83
2023/04/28 12:50:11;;;;;;;1.17;0.63;;;;;;;19.36;65.94;95261.66;4969886;28;20274;-83
2023/04/28 12:52:58;;;;;;;;;;;;;;;;;;;;;
2023/04/28 12:55:47;;;;;;;1.55;0.70;;;;;;;17.39;72.82;95244.84;5009101;28;20211;-90
2023/04/28 12:59:30;;;;;;;;;;;;;;;;;;;;;
2023/04/28 13:05:18;;;;;;;0.60;0.60;;;;;;;18.84;69.19;95268.69;4862171;29;20220;-85
2023/04/28 13:08:35;;;;;;;1.30;0.68;;;;;;;18.86;67.33;95260.56;4852773;29;20413;-86
2023/04/28 13:18:00;;;;;;;0.75;0.52;;;;;;;18.52;68.05;95266.84;4829710;29;20250;-86
2023/04/28 13:21:00;;;;;;;0.70;0.70;;;;;;;18.63;68.29;95261.78;4814382;29;20240;-87
2023/04/28 13:23:56;;;;;;;1.35;0.70;;;;;;;17.92;70.84;95268.63;4817632;29;20199;-86
2023/04/28 13:26:37;;;;;;;0.98;0.70;;;;;;;17.96;72.52;95259.38;4797128;29;20206;-85
2023/04/28 13:29:07;;;;;;;1.13;0.50;;;;;;;17.95;73.16;95248.06;4788076;29;20207;-86
2023/04/28 13:31:43;;;;;;;0.63;0.63;;;;;;;17.55;74.57;95265.50;4817413;29;20204;-85
2023/04/28 13:34:17;;;;;;;0.57;0.57;;;;;;;17.65;75.68;95260.69;4829828;29;20698;-85
2023/04/28 13:36:58;;;;;;;1.85;0.50;;;;;;;17.45;76.08;95257.19;4846586;29;20204;-86
2023/04/28 13:39:26;;;;;;;0.60;0.60;;;;;;;17.47;76.61;95244.66;4861919;29;20219;-84
2023/04/28 13:41:54;;;;;;;2.25;1.48;;;;;;;17.46;76.63;95256.19;4856202;29;20231;-85
2023/04/28 13:44:31;;;;;;;0.40;0.40;;;;;;;17.59;75.97;95263.31;4862872;29;20731;-81
2023/04/28 13:47:12;;;;;;;0.60;0.60;;;;;;;17.38;77.16;95243.22;4879995;29;20214;-88
2023/04/28 13:50:24;;;;;;;0.50;0.50;;;;;;;17.24;78.37;95240.56;4874926;29;20342;-83
2023/04/28 13:53:13;;;;;;;0.65;0.60;;;;;;;17.13;79.93;95256.84;4928166;29;20185;-83
2023/04/28 13:55:41;;;;;;;0.93;0.60;;;;;;;16.69;82.09;95257.22;4939740;29;20251;-83
2023/04/28 13:58:21;;;;;;;0.43;0.43;;;;;;;16.76;81.84;95262.50;4913693;29;20225;-83
2023/04/28 14:01:06;;;;;;;0.60;0.60;;;;;;;16.44;84.05;95248.97;4931188;29;20224;-83
2023/04/28 14:03:47;;;;;;;0.50;0.50;;;;;;;16.61;83.63;95246.88;4960909;28;20226;-83
2023/04/28 14:07:10;;;;;;;0.85;0.50;;;;;;;16.48;84.09;95239.72;4967595;28;20696;-84
2023/04/28 14:10:00;;;;;;;0.75;0.70;;;;;;;16.77;83.44;95246.56;4974841;28;20207;-84
2023/04/28 14:12:42;;;;;;;0.45;0.45;;;;;;;16.86;82.00;95240.16;4976590;28;20676;-83
2023/04/28 14:15:18;;;;;;;1.88;1.00;;;;;;;17.00;81.74;95241.06;4971208;28;20187;-82
2023/04/28 14:18:07;;;;;;;;;;;;;;;;;;;;;
2023/04/28 14:20:55;;;;;;;0.93;0.50;;;;;;;17.22;81.83;95232.06;5002172;28;20219;-82
2023/04/28 14:23:21;;;;;;;1.33;0.57;;;;;;;17.24;80.28;95230.06;4996537;28;20632;-83
2023/04/28 14:25:53;;;;;;;0.50;0.50;;;;;;;17.08;82.68;95226.97;4978312;28;20995;-83
2023/04/28 14:28:20;;;;;;;0.30;0.30;;;;;;;17.19;82.09;95221.16;4999387;28;20261;-85
2023/04/28 14:30:45;;;;;;;0.73;0.30;;;;;;;16.76;83.58;95225.78;4988065;28;20180;-84
2023/04/28 14:33:11;;;;;;;0.50;0.50;;;;;;;17.31;83.12;95218.78;4990684;28;20202;-86
2023/04/28 14:35:36;;;;;;;0.45;0.40;;;;;;;17.49;81.50;95219.88;4967254;28;20215;-84
2023/04/28 14:38:02;;;;;;;0.40;0.40;;;;;;;17.60;80.88;95223.72;4990244;28;20215;-85
2023/04/28 14:40:37;;;;;;;0.90;0.50;;;;;;;17.78;79.69;95231.06;4983475;28;20204;-85
2023/04/28 14:43:02;;;;;;;0.55;0.50;;;;;;;18.04;78.54;95225.81;4985848;28;20555;-84
2023/04/28 14:45:28;;;;;;;0.40;0.40;;;;;;;17.92;77.46;95223.97;5005736;28;20188;-87
2023/04/28 14:47:53;;;;;;;0.70;0.70;;;;;;;17.53;76.78;95222.88;4988354;28;20306;-85
2023/04/28 14:50:18;;;;;;;1.30;1.10;;;;;;;17.75;76.67;95213.03;5005651;28;20187;-84
2023/04/28 14:52:44;;;;;;;2.38;1.17;;;;;;;17.94;77.13;95208.84;4982486;28;20219;-85
2023/04/28 14:55:09;;;;;;;0.85;0.85;;;;;;;17.55;78.41;95213.00;4979014;28;20179;-86
2023/04/28 14:57:36;;;;;;;2.20;2.10;;;;;;;17.39;78.55;95213.34;4980354;28;20261;-85
2023/04/28 15:00:02;;;;;;;0.80;0.80;;;;;;;17.29;78.38;95208.47;4970070;28;20268;-83
2023/04/28 15:02:28;;;;;;;0.45;0.45;;;;;;;17.36;78.29;95201.44;4972415;28;20179;-84
2023/04/28 15:05:01;;;;;;;0.63;0.40;;;;;;;17.50;77.10;95197.03;4975818;28;20759;-84
2023/04/28 15:07:55;;;;;;;1.45;0.50;;;;;;;17.59;77.07;95201.09;4979794;28;20662;-84
2023/04/28 15:10:20;;;;;;;1.23;0.60;;;;;;;17.92;76.42;95209.03;4974045;28;20184;-83
2023/04/28 15:12:47;;;;;;;1.63;1.35;;;;;;;18.05;75.82;95208.25;4984036;28;20188;-84
2023/04/28 15:15:14;;;;;;;1.15;1.00;;;;;;;18.27;76.09;95198.31;5009206;28;20525;-85
2023/04/28 15:17:39;;;;;;;0.80;0.80;;;;;;;17.59;76.21;95205.53;4973713;28;20187;-85
2023/04/28 15:20:06;;;;;;;1.35;0.40;;;;;;;17.69;77.78;95203.34;4989456;28;20207;-84
2023/04/28 15:22:36;;;;;;;1.42;1.10;;;;;;;17.82;76.71;95206.81;4979627;28;20199;-83
2023/04/28 15:25:01;;;;;;;1.02;0.60;;;;;;;17.58;76.49;95209.16;4968089;28;20620;-83
2023/04/28 15:34:26;;;;;;;1.15;0.90;;;;;;;17.50;78.70;95210.97;4970690;28;20198;-84
2023/04/28 15:47:29;;;;;;;;;;;;;;;;;;;;;
2023/04/28 15:50:39;;;;;;;0.75;0.60;;;;;;;16.61;84.20;95199.69;4866743;29;20741;-84
2023/04/28 16:19:37;;;;;;;0.85;0.77;;;;;;;16.10;93.94;95195.50;5898395;23;20231;-84
2023/04/28 16:59:53;;;;;;;1.10;1.00;;;;;;;15.97;94.63;95179.69;5391146;23;20235;-86
2023/04/28 17:02:25;;;;;;;0.70;0.70;;;;;;;15.88;95.18;95182.63;4979263;28;20351;-83
2023/04/28 17:04:53;;;;;;;1.88;1.70;;;;;;;16.07;94.34;95174.13;4966169;28;20265;-84
2023/04/28 17:07:27;;;;;;;1.70;1.60;;;;;;;16.29;92.88;95172.25;4982381;28;20678;-83
2023/04/28 17:10:02;;;;;;;1.97;1.60;;;;;;;16.59;91.96;95168.41;4958333;28;20584;-83
2023/04/28 17:12:27;;;;;;;2.45;1.63;;;;;;;16.73;90.39;95168.50;4944302;28;20198;-83
2023/04/28 17:15:10;;;;;;;1.38;1.27;;;;;;;16.72;89.78;95178.19;4950295;28;20208;-84
2023/04/28 17:17:39;;;;;;;2.75;2.38;;;;;;;16.26;91.56;95194.44;4979101;28;20190;-83
2023/04/28 17:20:10;;;;;;;2.13;1.70;;;;;;;16.51;90.18;95189.53;4973156;28;20283;-84
2023/04/28 17:22:38;;;;;;;1.50;1.40;;;;;;;16.59;89.48;95184.13;4949168;28;20677;-83
2023/04/28 17:25:04;;;;;;;2.30;1.23;;;;;;;16.69;89.52;95182.00;4962996;28;20228;-84
2023/04/28 17:27:29;;;;;;;3.13;2.33;;;;;;;16.70;89.56;95186.25;4988578;28;20188;-85
2023/04/28 17:29:55;;;;;;;1.55;1.20;;;;;;;16.59;89.28;95185.94;4952250;28;20188;-85
2023/04/28 17:32:20;;;;;;;2.10;1.42;;;;;;;16.57;88.81;95187.94;4975357;28;20392;-84
2023/04/28 17:34:46;;;;;;;1.23;1.00;;;;;;;16.38;89.63;95176.34;4952447;28;20541;-85
2023/04/28 17:37:11;;;;;;;2.55;0.90;;;;;;;16.47;89.31;95188.31;4945355;28;20204;-84
2023/04/28 17:39:39;;;;;;;2.08;1.10;;;;;;;16.31;89.81;95183.34;4965424;28;20732;-84
2023/04/28 17:42:04;;;;;;;2.22;1.75;;;;;;;16.11;90.94;95180.59;4956185;28;20203;-85
2023/04/28 17:44:29;;;;;;;1.58;1.40;;;;;;;15.84;92.29;95184.81;4964391;28;20196;-85
2023/04/28 17:46:55;;;;;;;2.47;1.65;;;;;;;15.76;93.03;95180.53;4967020;28;20192;-84
2023/04/28 17:49:21;;;;;;;2.05;1.35;;;;;;;15.52;94.25;95180.88;4950737;28;20578;-83
2023/04/28 17:51:46;;;;;;;1.55;1.45;;;;;;;15.34;95.32;95180.50;4943191;28;20910;-83
2023/04/28 17:54:11;;;;;;;1.60;1.50;;;;;;;15.27;95.39;95180.41;4970180;28;20202;-83
2023/04/28 17:56:37;;;;;;;1.33;1.20;;;;;;;15.27;95.70;95173.38;4980690;28;20274;-82
2023/04/28 17:59:04;;;;;;;1.75;1.65;;;;;;;15.25;95.55;95171.94;4979564;28;20246;-84
2023/04/28 18:01:29;;;;;;;2.45;1.48;;;;;;;15.15;96.22;95176.66;4976942;28;20176;-84
2023/04/28 18:03:57;;;;;;;3.33;3.13;;;;;;;15.20;95.54;95176.94;4990379;28;20574;-83
2023/04/28 18:06:22;;;;;;;1.40;1.30;;;;;;;14.85;97.91;95175.94;4969121;28;20180;-84
2023/04/28 18:08:48;;;;;;;2.35;1.30;;;;;;;15.00;96.77;95187.97;4950237;28;20698;-86
2023/04/28 18:11:13;;;;;;;2.88;2.67;;;;;;;15.02;96.52;95188.63;4969809;28;20191;-83
2023/04/28 18:13:39;;;;;;;2.20;2.10;;;;;;;15.02;95.60;95190.41;4972220;28;20219;-84
2023/04/28 18:16:04;;;;;;;3.23;1.40;;;;;;;14.84;97.71;95201.28;4965439;28;20267;-86
2023/04/28 18:18:31;;;;;;;3.30;2.43;;;;;;;14.88;97.04;95205.13;4956059;28;20239;-86
2023/04/28 18:20:57;;;;;;;4.50;4.20;;;;;;;14.84;97.07;95208.28;4965331;28;21028;-84
2023/04/28 18:23:23;;;;;;;3.30;3.00;;;;;;;14.76;97.29;95211.81;4984054;28;20192;-85
2023/04/28 18:25:48;;;;;;;2.20;2.10;;;;;;;14.78;96.60;95212.44;4992103;28;20234;-84
2023/04/28 18:28:13;;;;;;;5.03;4.03;;;;;;;14.67;97.59;95218.13;4965580;28;20208;-85
2023/04/28 18:33:06;;;;;;;6.07;5.57;;;;;;;14.57;97.47;95220.19;4981202;28;20176;-85
2023/04/28 18:35:31;;;;;;;2.57;2.37;;;;;;;14.53;97.91;95218.94;4962084;28;20181;-83
2023/04/28 18:37:56;;;;;;;15.13;12.40;;;;;;;14.47;97.58;95222.25;4974360;28;20262;-83
2023/04/28 18:40:22;;;;;;;3.33;2.97;;;;;;;14.54;97.30;95226.59;4963011;28;20212;-84
2023/04/28 18:42:48;;;;;;;12.57;9.40;;;;;;;14.41;98.38;95229.00;4976137;28;20210;-84
2023/04/28 18:45:13;;;;;;;8.03;6.67;;;;;;;14.48;97.37;95236.94;4953027;28;20188;-85
2023/04/28 18:47:39;;;;;;;5.77;2.93;;;;;;;14.35;99.14;95243.56;4984688;28;20203;-83
2023/04/28 18:50:05;;;;;;;2.97;2.77;;;;;;;14.42;98.76;95234.03;4971321;28;20177;-85
2023/04/28 18:52:31;;;;;;;3.73;3.43;;;;;;;14.33;99.17;95235.09;4985790;28;20186;-86
2023/04/28 18:54:56;;;;;;;2.17;1.98;;;;;;;14.32;99.22;95236.09;4959324;28;20203;-85
2023/04/28 18:57:21;;;;;;;2.10;1.83;;;;;;;14.30;99.31;95243.28;4954621;28;20550;-84
2023/04/28 18:59:49;;;;;;;1.60;1.50;;;;;;;14.27;99.46;95238.41;4958382;28;20231;-84
2023/04/28 19:02:15;;;;;;;2.63;1.40;;;;;;;14.29;98.83;95251.28;4954334;28;20243;-84
2023/04/28 19:04:41;;;;;;;2.17;1.10;;;;;;;14.19;100.00;95248.94;4970490;28;20199;-86
2023/04/28 19:07:07;;;;;;;2.00;1.30;;;;;;;14.20;99.22;95257.56;4976023;28;20216;-84
2023/04/28 19:09:32;;;;;;;1.10;1.10;;;;;;;14.17;99.96;95258.75;4967922;28;20211;-83
2023/04/28 19:11:57;;;;;;;4.13;2.20;;;;;;;14.11;100.00;95256.84;4963719;28;20192;-84
2023/04/28 19:14:22;;;;;;;5.00;2.77;;;;;;;14.14;100.00;95253.88;4979308;28;20192;-84
2023/04/28 19:16:50;;;;;;;3.77;2.30;;;;;;;14.03;100.00;95257.72;4950772;28;20192;-83
2023/04/28 19:19:16;;;;;;;4.77;2.30;;;;;;;13.97;100.00;95262.84;4969097;28;20303;-84
2023/04/28 19:21:44;;;;;;;6.73;2.50;;;;;;;14.00;100.00;95262.47;4950122;28;20648;-84
2023/04/28 19:24:11;;;;;;;2.13;2.00;;;;;;;13.98;100.00;95269.69;4949807;28;20231;-84
2023/04/28 19:27:07;;;;;;;11.50;6.00;;;;;;;14.02;100.00;95270.94;4979377;28;20184;-87
2023/04/28 19:55:59;;;;;;;;;;;;;;;;;;;;;
2023/04/28 19:59:00;;;;;;;3.97;2.70;;;;;;;14.05;100.00;95286.28;4988388;28;20710;-84
2023/04/28 21:38:44;;;;;;;2.67;2.40;;;;;;;14.03;100.00;95316.94;5008770;28;20254;-82
2023/04/28 21:41:13;;;;;;;2.70;2.50;;;;;;;13.94;100.00;95310.97;4985291;28;20204;-82
2023/04/28 21:43:46;;;;;;;2.67;2.20;;;;;;;13.91;100.00;95310.53;4991677;28;20284;-82
2023/04/28 21:46:13;;;;;;;2.30;2.10;;;;;;;13.93;100.00;95311.97;4986853;28;20191;-82
2023/04/28 21:49:55;;;;;;;2.87;2.30;;;;;;;13.81;100.00;95316.78;4992712;28;20241;-82
2023/04/28 21:55:53;;;;;;;4.53;2.33;;;;;;;13.84;100.00;95321.63;4960970;28;20208;-83
2023/04/28 21:59:05;;;;;;;2.97;2.30;;;;;;;13.81;100.00;95322.00;4948925;29;20256;-83
2023/04/28 22:04:55;;;;;;;3.50;2.50;;;;;;;13.67;100.00;95308.88;5359996;23;20262;-81
